Time;durP1;ratioP1;P1;durP2;ratioP2;P2;SDS_P1;SDS_P2;PMS_P1;PMS_P2;Temp;Humidity;BMP_temperature;BMP_pressure;BME280_temperature;BME280_humidity;BME280_pressure;Samples;Min_cycle;Max_cycle;Signal;HPM_P1;HPM_P2
2021/03/01 00:01:09;;;;;;;20.80;14.43;;;;;;;7.56;68.51;103587.66;6205777;28;20351;-50
2021/03/01 00:04:29;;;;;;;22.37;14.27;;;;;;;7.44;68.31;103577.59;6206583;28;20233;-54
2021/03/01 00:07:50;;;;;;;19.80;15.13;;;;;;;7.64;67.72;103580.25;6212039;28;20225;-56
2021/03/01 00:11:11;;;;;;;22.87;17.40;;;;;;;7.49;68.24;103572.59;6209164;28;21791;-57
2021/03/01 00:14:32;;;;;;;26.50;18.30;;;;;;;7.51;67.93;103577.88;6190097;28;20678;-56
2021/03/01 00:17:52;;;;;;;22.83;16.27;;;;;;;7.59;67.25;103580.00;6179866;28;20325;-50
2021/03/01 00:21:13;;;;;;;21.17;14.07;;;;;;;7.62;67.39;103577.56;6205798;28;20237;-54
2021/03/01 00:24:34;;;;;;;18.80;12.10;;;;;;;7.54;67.67;103572.81;6204977;28;20233;-55
2021/03/01 00:27:55;;;;;;;20.70;14.50;;;;;;;7.14;68.53;103576.09;6202412;28;20264;-54
2021/03/01 00:31:16;;;;;;;15.70;11.17;;;;;;;7.42;67.68;103573.13;6209153;28;20954;-56
2021/03/01 00:34:36;;;;;;;17.00;12.10;;;;;;;7.50;67.52;103576.97;6207581;28;20229;-53
2021/03/01 00:37:56;;;;;;;19.03;12.27;;;;;;;7.45;67.37;103576.75;6200965;28;20241;-57
2021/03/01 00:41:17;;;;;;;20.33;11.27;;;;;;;7.55;67.13;103575.50;6201431;28;20233;-56
2021/03/01 00:44:38;;;;;;;16.53;12.33;;;;;;;7.52;67.45;103570.16;6200881;28;20229;-51
2021/03/01 00:47:59;;;;;;;18.23;12.67;;;;;;;7.26;67.56;103567.19;6211978;28;20229;-55
2021/03/01 00:51:19;;;;;;;16.73;12.40;;;;;;;7.06;69.06;103555.88;6208474;28;20271;-54
2021/03/01 00:54:40;;;;;;;17.03;12.13;;;;;;;7.17;68.47;103550.31;6201015;28;20763;-57
2021/03/01 00:58:01;;;;;;;17.87;12.47;;;;;;;7.41;67.98;103550.63;6183187;28;20835;-55
2021/03/01 01:01:23;;;;;;;19.93;14.57;;;;;;;7.62;67.27;103550.75;6202332;28;20324;-57
2021/03/01 01:04:43;;;;;;;18.20;12.77;;;;;;;7.24;67.63;103548.09;6191236;28;20238;-55
2021/03/01 01:08:05;;;;;;;19.67;13.67;;;;;;;7.27;68.46;103550.84;6175688;28;20793;-54
2021/03/01 01:11:25;;;;;;;16.40;12.40;;;;;;;7.13;68.34;103544.09;6202493;28;20233;-56
2021/03/01 01:14:46;;;;;;;17.07;12.67;;;;;;;7.42;67.74;103552.38;6209850;28;20237;-56
2021/03/01 01:18:07;;;;;;;18.37;13.13;;;;;;;7.25;68.20;103543.78;6206257;28;20240;-55
2021/03/01 01:21:28;;;;;;;17.20;12.00;;;;;;;7.18;67.98;103547.81;6211020;28;20218;-55
2021/03/01 01:24:48;;;;;;;19.33;13.33;;;;;;;7.18;67.97;103542.63;6207708;28;20237;-55
2021/03/01 01:28:09;;;;;;;16.63;13.00;;;;;;;7.22;68.16;103534.16;6208472;28;20237;-56
2021/03/01 01:31:29;;;;;;;17.60;12.63;;;;;;;7.18;68.61;103532.25;6208094;28;20237;-55
2021/03/01 01:34:51;;;;;;;18.00;12.63;;;;;;;7.40;67.82;103523.78;6205635;28;20511;-56
2021/03/01 01:38:11;;;;;;;19.70;14.97;;;;;;;7.39;67.77;103518.56;6206245;28;20237;-54
2021/03/01 01:41:32;;;;;;;18.57;12.03;;;;;;;7.46;67.44;103521.50;6205894;28;20670;-55
2021/03/01 01:44:52;;;;;;;16.40;12.93;;;;;;;7.53;67.29;103524.38;6209821;28;20269;-56
2021/03/01 01:48:13;;;;;;;18.30;12.47;;;;;;;7.54;67.27;103516.69;6209673;28;20775;-57
2021/03/01 01:51:34;;;;;;;18.37;15.50;;;;;;;7.47;67.49;103514.59;6214967;28;20225;-58
2021/03/01 01:54:55;;;;;;;18.30;12.83;;;;;;;7.29;68.02;103510.31;6212855;28;20633;-56
2021/03/01 01:58:15;;;;;;;16.47;12.93;;;;;;;7.43;67.63;103512.69;6204600;28;20237;-54
2021/03/01 02:01:36;;;;;;;17.33;12.40;;;;;;;7.65;66.55;103506.78;6211037;28;20233;-55
2021/03/01 02:05:01;;;;;;;19.63;12.33;;;;;;;7.52;66.96;103504.44;6202237;28;20237;-52
2021/03/01 02:08:28;;;;;;;15.77;11.47;;;;;;;7.48;67.18;103506.00;6204075;28;20320;-57
2021/03/01 02:12:14;;;;;;;16.37;13.27;;;;;;;7.27;67.95;103517.16;6209443;28;20233;-54
2021/03/01 02:15:42;;;;;;;16.30;11.20;;;;;;;7.41;67.24;103529.88;6200828;28;20836;-54
2021/03/01 02:19:03;;;;;;;15.93;12.20;;;;;;;7.61;66.84;103520.44;6209920;28;20233;-54
2021/03/01 02:22:24;;;;;;;19.23;12.50;;;;;;;7.68;66.39;103517.31;6215136;28;20237;-57
2021/03/01 02:25:48;;;;;;;18.67;12.93;;;;;;;7.58;66.80;103512.50;6195314;28;20489;-54
2021/03/01 02:29:13;;;;;;;19.73;12.33;;;;;;;7.56;66.56;103522.81;6210248;28;20225;-53
2021/03/01 02:32:37;;;;;;;15.13;10.27;;;;;;;7.73;66.18;103523.56;6188259;28;20230;-54
2021/03/01 02:36:00;;;;;;;15.27;11.50;;;;;;;7.85;65.82;103512.88;6208142;28;20237;-56
2021/03/01 02:39:25;;;;;;;17.03;10.67;;;;;;;7.64;66.16;103513.69;6200589;28;20242;-54
2021/03/01 02:42:47;;;;;;;16.53;11.83;;;;;;;7.65;65.97;103509.38;6209810;28;20237;-54
2021/03/01 02:46:09;;;;;;;17.63;11.97;;;;;;;7.57;66.70;103509.03;6207220;28;20228;-56
2021/03/01 02:49:30;;;;;;;12.03;9.23;;;;;;;7.34;66.62;103517.44;6212848;28;20229;-56
2021/03/01 02:52:51;;;;;;;11.00;8.40;;;;;;;7.65;65.52;103515.44;6212662;28;20711;-53
2021/03/01 02:56:16;;;;;;;12.87;8.43;;;;;;;7.60;65.58;103511.78;6208759;28;20232;-54
2021/03/01 02:59:38;;;;;;;11.63;7.27;;;;;;;7.56;65.54;103517.63;6181727;28;20229;-56
2021/03/01 03:02:59;;;;;;;10.50;8.17;;;;;;;7.64;64.52;103518.88;6191077;28;20427;-57
2021/03/01 03:06:23;;;;;;;9.53;7.70;;;;;;;7.62;65.03;103530.88;6196131;28;20236;-57
2021/03/01 03:09:46;;;;;;;9.40;7.60;;;;;;;7.51;65.05;103534.66;6193866;28;20261;-57
2021/03/01 03:13:09;;;;;;;11.77;8.20;;;;;;;7.67;64.99;103525.91;6207629;28;20229;-56
2021/03/01 03:16:32;;;;;;;9.27;7.97;;;;;;;7.59;64.85;103528.13;6200830;28;20643;-54
2021/03/01 03:19:53;;;;;;;13.90;9.90;;;;;;;7.54;64.92;103532.22;6209099;28;20229;-57
2021/03/01 03:23:13;;;;;;;12.67;8.70;;;;;;;7.55;64.94;103533.13;6203574;28;20233;-56
2021/03/01 03:26:34;;;;;;;10.33;7.97;;;;;;;7.55;65.23;103531.41;6203396;28;20225;-55
2021/03/01 03:29:55;;;;;;;12.37;9.03;;;;;;;7.40;65.47;103521.19;6200088;28;20233;-55
2021/03/01 03:33:17;;;;;;;15.30;9.17;;;;;;;7.56;65.52;103520.22;6213173;28;20544;-56
2021/03/01 03:36:43;;;;;;;12.37;8.77;;;;;;;7.63;64.98;103530.03;6199391;28;20230;-57
2021/03/01 03:40:05;;;;;;;11.67;8.97;;;;;;;7.51;65.39;103538.97;6210502;28;20241;-56
2021/03/01 03:43:27;;;;;;;12.30;9.97;;;;;;;7.52;65.38;103532.97;6212145;28;20265;-54
2021/03/01 03:46:48;;;;;;;17.00;11.17;;;;;;;7.61;65.18;103523.03;6201337;28;20514;-54
2021/03/01 03:50:11;;;;;;;12.73;10.00;;;;;;;7.46;65.44;103529.28;6205942;28;20587;-57
2021/03/01 03:53:37;;;;;;;12.70;10.60;;;;;;;7.35;65.99;103530.47;6195920;28;20241;-53
2021/03/01 03:57:01;;;;;;;13.97;10.23;;;;;;;7.50;65.62;103535.47;6201395;28;20245;-53
2021/03/01 04:43:22;;;;;;;11.87;8.83;;;;;;;7.35;65.86;103547.72;6182362;28;20237;-56
2021/03/01 04:46:44;;;;;;;10.80;8.60;;;;;;;7.37;65.42;103559.06;6203567;28;20230;-56
2021/03/01 04:50:06;;;;;;;12.33;8.73;;;;;;;7.49;65.52;103554.47;6213971;28;20285;-55
2021/03/01 04:53:28;;;;;;;9.53;8.53;;;;;;;7.60;64.83;103547.16;6192452;28;20229;-56
2021/03/01 04:56:50;;;;;;;12.87;9.03;;;;;;;7.66;64.67;103555.25;6196961;28;20233;-57
2021/03/01 05:00:12;;;;;;;14.00;9.53;;;;;;;7.77;64.24;103545.38;6191428;28;20565;-55
2021/03/01 05:03:34;;;;;;;10.20;7.47;;;;;;;7.69;64.17;103552.78;6206183;28;20241;-54
2021/03/01 05:06:56;;;;;;;32.90;29.37;;;;;;;7.44;65.37;103548.16;6212476;28;20480;-53
2021/03/01 05:10:17;;;;;;;15.53;12.03;;;;;;;7.40;65.41;103541.94;6212791;28;20229;-54
2021/03/01 05:13:37;;;;;;;17.80;15.50;;;;;;;7.37;65.53;103544.41;6217755;28;20623;-53
2021/03/01 05:17:03;;;;;;;15.13;9.87;;;;;;;7.54;64.92;103549.47;6197941;28;20583;-56
2021/03/01 05:20:24;;;;;;;15.33;10.00;;;;;;;7.59;64.97;103554.06;6206698;28;20677;-51
2021/03/01 05:23:44;;;;;;;15.93;10.83;;;;;;;7.32;65.84;103550.16;6217804;28;20225;-56
2021/03/01 05:27:05;;;;;;;9.97;8.90;;;;;;;7.44;65.06;103542.97;6210924;28;20726;-58
2021/03/01 05:30:26;;;;;;;12.07;9.60;;;;;;;7.63;64.20;103535.22;6208446;28;20500;-53
2021/03/01 05:33:47;;;;;;;12.87;10.13;;;;;;;7.69;63.78;103527.72;6213249;28;20221;-55
2021/03/01 05:37:08;;;;;;;14.47;12.97;;;;;;;7.77;63.57;103533.28;6207138;28;20229;-57
2021/03/01 05:40:28;;;;;;;28.27;25.30;;;;;;;7.47;64.40;103556.09;6208859;28;20229;-55
2021/03/01 05:43:49;;;;;;;16.00;14.30;;;;;;;7.64;63.97;103536.16;6208121;28;20232;-57
2021/03/01 05:47:10;;;;;;;17.47;15.30;;;;;;;7.74;64.42;103535.75;6207048;28;20229;-55
2021/03/01 05:50:31;;;;;;;11.37;8.37;;;;;;;7.35;64.26;103545.13;6213567;28;20229;-55
2021/03/01 05:53:55;;;;;;;8.87;7.50;;;;;;;7.40;63.70;103544.53;6207936;28;20320;-58
2021/03/01 05:57:16;;;;;;;10.00;6.67;;;;;;;7.43;63.82;103547.28;6209348;28;20998;-57
2021/03/01 06:00:36;;;;;;;8.87;7.10;;;;;;;7.48;62.82;103547.47;6195454;28;22160;-53
2021/03/01 06:03:57;;;;;;;10.83;8.70;;;;;;;7.50;62.58;103545.84;6210677;28;20511;-53
2021/03/01 06:07:19;;;;;;;9.73;8.73;;;;;;;7.09;64.02;103553.44;6207123;28;20302;-55
2021/03/01 06:10:39;;;;;;;7.73;6.47;;;;;;;7.29;63.60;103544.03;6211230;28;20252;-56
2021/03/01 06:14:02;;;;;;;11.60;7.97;;;;;;;7.33;63.35;103541.56;6214259;28;20263;-56
2021/03/01 06:17:23;;;;;;;7.00;6.33;;;;;;;7.48;62.69;103547.47;6210298;28;20257;-56
2021/03/01 06:20:44;;;;;;;9.73;8.17;;;;;;;7.05;64.14;103553.19;6209676;28;20685;-53
2021/03/01 06:24:13;;;;;;;15.33;11.10;;;;;;;7.13;64.75;103557.03;6211042;28;20683;-52
2021/03/01 06:27:46;;;;;;;15.47;11.73;;;;;;;7.04;65.62;103549.72;6207911;28;20746;-54
2021/03/01 06:31:37;;;;;;;14.67;11.70;;;;;;;7.14;65.29;103550.19;6198994;28;20226;-56
2021/03/01 06:34:57;;;;;;;22.53;14.30;;;;;;;7.37;64.66;103556.47;6180831;28;20308;-56
2021/03/01 06:38:25;;;;;;;16.93;12.73;;;;;;;7.20;65.34;103564.31;6209225;28;20225;-57
2021/03/01 06:41:46;;;;;;;15.27;12.20;;;;;;;7.11;65.56;103563.84;6199593;28;20236;-56
2021/03/01 06:45:13;;;;;;;15.37;11.57;;;;;;;7.37;64.59;103564.25;6212374;28;20378;-56
2021/03/01 06:48:34;;;;;;;12.30;10.33;;;;;;;7.20;64.95;103566.91;6202966;28;20237;-55
2021/03/01 06:51:54;;;;;;;13.60;11.73;;;;;;;7.18;64.72;103560.75;6201010;28;20233;-58
2021/03/01 06:55:16;;;;;;;13.63;11.40;;;;;;;7.15;64.61;103573.56;6210187;28;20546;-56
2021/03/01 06:58:39;;;;;;;13.63;11.87;;;;;;;7.38;63.97;103568.59;6205919;28;20241;-57
2021/03/01 07:01:59;;;;;;;11.00;9.47;;;;;;;7.21;63.92;103563.50;6209800;28;20225;-57
2021/03/01 07:05:21;;;;;;;12.50;9.60;;;;;;;6.93;64.66;103557.78;6207960;28;20245;-57
2021/03/01 07:08:49;;;;;;;30.10;27.00;;;;;;;7.32;64.02;103551.06;6208429;28;20288;-56
2021/03/01 07:12:10;;;;;;;20.93;18.23;;;;;;;7.41;63.81;103553.22;6210032;28;20312;-54
2021/03/01 07:15:32;;;;;;;18.13;13.43;;;;;;;7.56;64.38;103561.72;6212993;28;20225;-55
2021/03/01 07:18:53;;;;;;;14.63;11.40;;;;;;;7.61;63.34;103559.34;6208639;28;20229;-58
2021/03/01 07:22:15;;;;;;;17.57;9.70;;;;;;;7.32;64.35;103565.72;6205980;28;20233;-56
2021/03/01 07:25:36;;;;;;;13.13;9.73;;;;;;;7.28;64.20;103562.09;6206467;28;20896;-59
2021/03/01 07:29:03;;;;;;;14.20;11.27;;;;;;;7.25;64.27;103568.03;6203186;28;20229;-55
2021/03/01 07:32:28;;;;;;;14.50;10.67;;;;;;;7.61;63.04;103575.78;6206870;28;20244;-58
2021/03/01 07:35:49;;;;;;;13.73;10.60;;;;;;;7.13;64.32;103574.31;6215885;28;20240;-57
2021/03/01 07:39:11;;;;;;;13.43;11.00;;;;;;;7.29;64.37;103572.53;6209470;28;20225;-57
2021/03/01 07:42:33;;;;;;;11.70;9.30;;;;;;;7.59;63.22;103577.41;6211268;28;20780;-50
2021/03/01 07:45:56;;;;;;;11.77;10.30;;;;;;;7.80;62.25;103587.91;6204583;28;20241;-57
2021/03/01 07:49:36;;;;;;;14.00;10.33;;;;;;;7.33;62.35;103577.84;6207158;28;20500;-56
2021/03/01 07:52:56;;;;;;;13.80;9.50;;;;;;;7.39;62.69;103578.19;6155772;28;20257;-56
2021/03/01 07:56:52;;;;;;;15.40;10.33;;;;;;;7.59;62.45;103582.59;6187008;28;20702;-57
2021/03/01 08:00:25;;;;;;;15.03;11.60;;;;;;;7.63;62.30;103584.50;6184776;28;20233;-57
2021/03/01 08:03:45;;;;;;;12.63;10.93;;;;;;;7.00;63.83;103583.16;6201118;28;20688;-57
2021/03/01 08:07:07;;;;;;;14.87;12.17;;;;;;;6.98;64.02;103579.59;6210087;28;20221;-57
2021/03/01 08:10:44;;;;;;;17.37;12.20;;;;;;;5.87;67.27;103584.16;6205509;28;20220;-57
2021/03/01 08:14:11;;;;;;;11.87;9.50;;;;;;;6.59;65.22;103585.47;6212973;28;20602;-58
2021/03/01 08:17:33;;;;;;;13.77;9.87;;;;;;;7.06;63.64;103583.50;6209123;28;20256;-58
2021/03/01 08:20:56;;;;;;;11.47;9.90;;;;;;;7.52;62.32;103585.69;6212621;28;20529;-56
2021/03/01 08:24:45;;;;;;;13.63;11.07;;;;;;;7.74;61.53;103597.13;6215649;28;20230;-55
2021/03/01 08:28:06;;;;;;;12.57;10.87;;;;;;;7.73;61.38;103600.53;6218172;28;20232;-56
2021/03/01 08:31:35;;;;;;;15.47;10.93;;;;;;;7.46;62.02;103600.97;6213479;28;20221;-58
2021/03/01 08:35:20;;;;;;;10.77;9.13;;;;;;;7.68;61.91;103601.19;6212393;28;20225;-56
2021/03/01 08:38:49;;;;;;;12.00;9.63;;;;;;;7.60;61.00;103589.56;6209373;28;20324;-54
2021/03/01 08:42:10;;;;;;;12.83;10.17;;;;;;;6.81;63.49;103602.09;6184689;28;20232;-52
2021/03/01 08:45:38;;;;;;;15.73;10.33;;;;;;;7.30;62.37;103605.41;6217203;28;20253;-55
2021/03/01 08:48:59;;;;;;;12.70;9.30;;;;;;;7.44;62.04;103597.41;6211211;28;20237;-58
2021/03/01 08:52:20;;;;;;;14.87;10.83;;;;;;;8.08;61.59;103590.09;6216264;28;20253;-52
2021/03/01 08:55:40;;;;;;;12.40;9.63;;;;;;;8.39;60.09;103586.22;6211263;28;20237;-55
2021/03/01 08:59:16;;;;;;;14.07;11.37;;;;;;;8.39;58.98;103588.81;6204654;28;20246;-53
2021/03/01 09:02:36;;;;;;;15.93;11.77;;;;;;;8.65;58.06;103597.81;6210616;28;20241;-56
2021/03/01 09:06:06;;;;;;;13.77;10.60;;;;;;;8.69;57.97;103587.56;6217529;28;20245;-52
2021/03/01 09:09:26;;;;;;;17.20;9.97;;;;;;;8.80;57.12;103592.41;6214756;28;20233;-56
2021/03/01 09:12:47;;;;;;;15.33;12.37;;;;;;;8.92;57.17;103592.03;6213760;28;20237;-56
2021/03/01 09:16:11;;;;;;;13.20;10.17;;;;;;;8.95;57.33;103589.53;6213705;28;20317;-53
2021/03/01 09:19:33;;;;;;;14.70;12.23;;;;;;;9.29;57.52;103600.47;6212100;28;20237;-54
2021/03/01 09:22:54;;;;;;;16.80;13.57;;;;;;;9.27;56.15;103593.47;6185467;28;20233;-55
2021/03/01 09:26:20;;;;;;;13.63;10.97;;;;;;;9.16;59.46;103589.53;6203593;28;20333;-53
2021/03/01 09:29:40;;;;;;;21.97;18.87;;;;;;;9.17;58.56;103593.03;6206189;28;20548;-54
2021/03/01 09:33:04;;;;;;;24.77;21.97;;;;;;;9.60;55.32;103592.16;6209770;28;20914;-57
2021/03/01 09:36:30;;;;;;;17.57;13.77;;;;;;;9.11;56.22;103585.88;6211250;28;20237;-55
2021/03/01 09:39:50;;;;;;;19.63;14.70;;;;;;;8.78;57.46;103588.84;6206642;28;20236;-56
2021/03/01 09:43:12;;;;;;;26.00;18.97;;;;;;;8.89;57.15;103597.06;6210350;28;20241;-54
2021/03/01 09:46:33;;;;;;;22.47;19.90;;;;;;;9.06;56.62;103587.41;6204948;28;20253;-57
2021/03/01 09:49:55;;;;;;;26.97;22.33;;;;;;;9.07;56.07;103583.94;6202905;28;20779;-54
2021/03/01 09:53:17;;;;;;;26.00;20.90;;;;;;;9.11;56.55;103600.56;6212968;28;20607;-50
2021/03/01 09:56:40;;;;;;;20.80;17.17;;;;;;;9.08;56.57;103590.94;6210828;28;20225;-57
2021/03/01 10:00:19;;;;;;;23.40;19.37;;;;;;;9.42;55.43;103595.81;6188298;28;20242;-52
2021/03/01 10:03:42;;;;;;;24.40;18.13;;;;;;;9.47;55.43;103601.19;6197891;28;20233;-58
2021/03/01 10:07:16;;;;;;;24.43;19.40;;;;;;;9.86;54.87;103591.44;6204335;28;20253;-56
2021/03/01 10:10:39;;;;;;;26.70;19.73;;;;;;;9.73;54.04;103603.91;6211795;28;20240;-57
2021/03/01 10:14:04;;;;;;;28.60;23.43;;;;;;;9.39;54.26;103608.69;6206354;28;20230;-58
2021/03/01 10:17:28;;;;;;;26.83;22.73;;;;;;;9.16;55.81;103607.75;6210901;28;20877;-53
2021/03/01 10:20:51;;;;;;;27.53;22.27;;;;;;;9.58;55.11;103609.44;6210475;28;20698;-52
2021/03/01 10:24:15;;;;;;;27.43;23.77;;;;;;;9.56;54.18;103605.88;6203934;28;20750;-53
2021/03/01 10:27:36;;;;;;;28.63;24.00;;;;;;;9.43;54.47;103600.16;6197516;28;20225;-56
2021/03/01 10:31:02;;;;;;;31.10;24.20;;;;;;;10.03;53.31;103599.88;6201096;28;20237;-56
2021/03/01 10:34:29;;;;;;;29.80;25.10;;;;;;;10.78;51.41;103604.34;6206637;28;20222;-57
2021/03/01 10:38:04;;;;;;;29.50;25.63;;;;;;;10.91;50.80;103600.44;6213150;28;20303;-55
2021/03/01 10:41:27;;;;;;;28.50;23.63;;;;;;;11.60;49.84;103605.28;6205872;28;20245;-57
2021/03/01 10:44:54;;;;;;;29.97;23.80;;;;;;;10.51;49.95;103611.22;6207445;28;20249;-57
2021/03/01 10:48:14;;;;;;;30.53;26.80;;;;;;;9.79;52.47;103611.97;6209407;28;20233;-57
2021/03/01 10:51:35;;;;;;;26.57;23.57;;;;;;;10.48;50.94;103611.09;6204053;28;20229;-57
2021/03/01 10:54:57;;;;;;;26.97;22.00;;;;;;;10.44;51.44;103613.56;6186056;28;20237;-57
2021/03/01 10:58:18;;;;;;;30.73;23.93;;;;;;;11.11;49.00;103616.78;6186888;28;20268;-55
2021/03/01 11:01:41;;;;;;;31.90;24.97;;;;;;;11.59;48.18;103613.06;6208708;28;20349;-55
2021/03/01 11:05:01;;;;;;;28.37;24.13;;;;;;;11.77;48.07;103615.38;6206690;28;20233;-58
2021/03/01 11:08:23;;;;;;;29.50;25.03;;;;;;;10.20;51.32;103610.94;6211251;28;20918;-57
2021/03/01 11:11:45;;;;;;;29.20;25.17;;;;;;;13.63;44.01;103609.00;6212775;28;20256;-52
2021/03/01 11:15:08;;;;;;;29.27;23.17;;;;;;;19.82;31.90;103585.16;6198192;28;20749;-55
2021/03/01 11:18:28;;;;;;;24.53;21.67;;;;;;;22.59;26.79;103586.94;6207547;28;20238;-55
2021/03/01 11:21:49;;;;;;;26.27;22.52;;;;;;;24.70;23.62;103586.25;6214980;28;20242;-56
2021/03/01 11:25:11;;;;;;;24.67;21.90;;;;;;;25.40;21.66;103581.78;6207777;28;20619;-56
2021/03/01 11:28:31;;;;;;;25.65;21.95;;;;;;;26.04;21.55;103584.38;6208806;28;20266;-58
2021/03/01 11:31:53;;;;;;;33.47;30.13;;;;;;;25.37;22.47;103587.19;6205608;28;20229;-59
2021/03/01 11:35:14;;;;;;;26.13;23.35;;;;;;;24.99;21.82;103579.31;6203728;28;20244;-56
2021/03/01 11:38:34;;;;;;;25.10;22.48;;;;;;;24.30;23.14;103575.66;6210046;28;20615;-56
2021/03/01 11:41:55;;;;;;;23.20;20.73;;;;;;;26.35;21.39;103572.69;6206447;28;20221;-58
2021/03/01 11:45:16;;;;;;;19.42;17.52;;;;;;;26.78;19.80;103569.50;6217966;28;20608;-59
2021/03/01 11:48:38;;;;;;;21.02;18.83;;;;;;;25.88;19.79;103562.56;6210785;28;20536;-57
2021/03/01 11:51:59;;;;;;;18.15;16.30;;;;;;;25.79;21.05;103560.19;6206780;28;20237;-59
2021/03/01 11:55:19;;;;;;;17.50;15.70;;;;;;;24.35;21.80;103563.13;6197583;28;20242;-58
2021/03/01 11:58:41;;;;;;;16.08;14.48;;;;;;;27.75;19.39;103549.06;6202817;28;20245;-57
2021/03/01 12:02:01;;;;;;;15.70;14.20;;;;;;;28.87;18.05;103552.53;6205474;28;20612;-57
2021/03/01 12:05:23;;;;;;;17.60;15.80;;;;;;;24.74;21.71;103555.09;6190679;28;20237;-58
2021/03/01 12:08:43;;;;;;;16.15;14.50;;;;;;;26.53;19.86;103545.38;6203561;28;20234;-60
2021/03/01 12:12:04;;;;;;;17.67;15.88;;;;;;;28.31;18.02;103537.03;6202293;28;20226;-57
2021/03/01 12:15:24;;;;;;;15.60;14.13;;;;;;;27.84;18.14;103532.59;6206896;28;20220;-56
2021/03/01 12:18:45;;;;;;;15.95;13.68;;;;;;;29.49;16.85;103531.84;6192210;28;20225;-58
2021/03/01 12:22:07;;;;;;;19.67;15.90;;;;;;;28.36;17.64;103535.88;6197045;28;20225;-58
2021/03/01 12:25:28;;;;;;;18.88;16.95;;;;;;;29.53;16.05;103535.25;6177112;28;20539;-58
2021/03/01 12:28:48;;;;;;;22.10;20.10;;;;;;;28.34;17.21;103535.06;6201022;28;20229;-58
2021/03/01 12:32:09;;;;;;;19.30;17.40;;;;;;;27.75;18.18;103523.16;6204715;28;20229;-58
2021/03/01 12:35:30;;;;;;;18.40;16.60;;;;;;;28.81;17.08;103507.22;6201189;28;20237;-57
2021/03/01 12:38:51;;;;;;;19.85;17.80;;;;;;;27.19;18.65;103513.66;6196487;28;20260;-56
2021/03/01 12:42:12;;;;;;;18.92;16.92;;;;;;;27.72;18.19;103501.84;6194714;28;20229;-57
2021/03/01 12:45:33;;;;;;;21.98;18.65;;;;;;;25.68;19.89;103500.00;6196197;28;20282;-59
2021/03/01 12:48:54;;;;;;;18.02;16.33;;;;;;;27.36;18.94;103491.66;6200643;28;20606;-57
2021/03/01 12:52:14;;;;;;;19.20;17.40;;;;;;;26.61;19.29;103489.03;6203667;28;20495;-55
2021/03/01 12:55:36;;;;;;;18.10;15.80;;;;;;;27.75;18.57;103479.47;6196678;28;20241;-58
2021/03/01 12:58:56;;;;;;;21.08;15.82;;;;;;;28.04;18.21;103481.84;6173190;28;20233;-55
2021/03/01 13:02:18;;;;;;;20.38;17.15;;;;;;;27.56;18.55;103480.19;6203511;28;20726;-58
2021/03/01 13:05:38;;;;;;;18.25;16.40;;;;;;;26.20;19.92;103481.47;6203154;28;20233;-58
2021/03/01 13:08:59;;;;;;;21.95;17.52;;;;;;;25.38;21.34;103477.81;6193873;28;20265;-55
2021/03/01 13:12:20;;;;;;;23.85;21.65;;;;;;;24.36;22.91;103475.19;6204231;28;20261;-54
2021/03/01 13:15:41;;;;;;;21.92;19.70;;;;;;;23.54;23.90;103470.03;6207393;28;20237;-54
2021/03/01 13:19:02;;;;;;;19.67;17.77;;;;;;;24.24;22.74;103464.00;6208110;28;20614;-56
2021/03/01 13:22:22;;;;;;;18.58;16.65;;;;;;;23.41;24.15;103471.19;6205016;28;20225;-57
2021/03/01 13:25:43;;;;;;;16.60;14.80;;;;;;;22.32;25.65;103460.84;6205359;28;20232;-57
2021/03/01 13:29:05;;;;;;;17.23;15.43;;;;;;;21.34;26.87;103449.81;6207435;28;20225;-55
2021/03/01 13:32:25;;;;;;;19.80;16.00;;;;;;;21.78;26.32;103446.59;6212200;28;20233;-56
2021/03/01 13:35:46;;;;;;;18.65;15.88;;;;;;;22.29;25.43;103455.56;6202454;28;20221;-56
2021/03/01 13:39:07;;;;;;;18.35;14.40;;;;;;;23.64;23.45;103447.63;6183119;28;20312;-58
2021/03/01 13:42:27;;;;;;;16.30;12.73;;;;;;;24.44;22.76;103450.16;6207287;28;20595;-56
2021/03/01 13:45:49;;;;;;;14.32;12.93;;;;;;;24.96;21.69;103441.63;6204910;28;20565;-59
2021/03/01 13:49:09;;;;;;;14.10;12.70;;;;;;;24.01;22.05;103430.81;6206721;28;20232;-60
2021/03/01 13:52:30;;;;;;;13.95;11.85;;;;;;;23.06;24.32;103428.47;6196431;28;20674;-58
2021/03/01 13:55:51;;;;;;;13.80;12.40;;;;;;;23.71;22.98;103430.63;6205863;28;20233;-56
2021/03/01 13:59:11;;;;;;;11.98;10.82;;;;;;;24.80;21.66;103421.69;6211907;28;20676;-56
2021/03/01 14:02:33;;;;;;;16.73;14.98;;;;;;;22.11;25.48;103424.88;6210268;28;20901;-54
2021/03/01 14:05:53;;;;;;;13.48;12.20;;;;;;;23.20;24.19;103425.53;6194142;28;20236;-57
2021/03/01 14:09:14;;;;;;;13.00;11.65;;;;;;;24.14;22.58;103410.97;6201278;28;21789;-53
2021/03/01 14:12:35;;;;;;;12.38;11.15;;;;;;;22.98;24.38;103412.66;6195248;28;20234;-53
2021/03/01 14:15:55;;;;;;;10.65;9.73;;;;;;;22.34;24.73;103427.16;6205504;28;20225;-60
2021/03/01 14:19:17;;;;;;;12.27;9.82;;;;;;;20.77;27.62;103419.56;6204508;28;20238;-61
2021/03/01 14:22:37;;;;;;;11.15;9.10;;;;;;;20.90;27.02;103425.63;6207109;28;20228;-56
2021/03/01 14:25:58;;;;;;;9.52;8.63;;;;;;;22.12;25.87;103422.19;6178864;28;20229;-57
2021/03/01 14:29:19;;;;;;;11.00;9.35;;;;;;;23.76;23.90;103419.84;6204619;28;20618;-56
2021/03/01 14:32:40;;;;;;;12.98;9.45;;;;;;;23.89;23.25;103415.16;6211586;28;20221;-56
2021/03/01 14:36:03;;;;;;;10.60;9.27;;;;;;;23.58;23.65;103416.72;6210214;28;20250;-55
2021/03/01 14:39:23;;;;;;;11.10;9.35;;;;;;;22.51;25.14;103418.91;6206855;28;20520;-58
2021/03/01 14:42:44;;;;;;;8.90;7.85;;;;;;;22.78;24.91;103401.59;6207349;28;20229;-54
2021/03/01 14:46:05;;;;;;;9.98;8.57;;;;;;;21.76;26.43;103411.25;6211910;28;20228;-57
2021/03/01 14:49:26;;;;;;;11.60;9.13;;;;;;;19.43;29.37;103409.97;6207436;28;20623;-56
2021/03/01 14:52:48;;;;;;;10.02;8.90;;;;;;;20.37;28.34;103405.81;6206468;28;20252;-56
2021/03/01 14:56:09;;;;;;;9.38;8.07;;;;;;;20.41;28.57;103410.19;6205355;28;20237;-56
2021/03/01 14:59:29;;;;;;;10.00;8.30;;;;;;;20.84;28.05;103404.50;6212369;28;20236;-55
2021/03/01 15:02:50;;;;;;;11.20;8.10;;;;;;;20.85;27.94;103399.16;6209304;28;20339;-56
2021/03/01 15:06:11;;;;;;;9.75;8.77;;;;;;;20.56;28.59;103401.22;6206387;28;20226;-58
2021/03/01 15:09:32;;;;;;;9.80;8.82;;;;;;;20.11;29.43;103404.28;6203159;28;20241;-58
2021/03/01 15:12:53;;;;;;;10.52;9.32;;;;;;;19.26;30.37;103404.78;6206160;28;20225;-53
2021/03/01 15:16:14;;;;;;;8.73;7.82;;;;;;;18.73;32.02;103397.00;6191478;28;20229;-53
2021/03/01 15:19:34;;;;;;;9.07;7.88;;;;;;;18.42;32.49;103412.91;6179861;28;20230;-56
2021/03/01 15:22:55;;;;;;;9.40;8.30;;;;;;;17.68;33.54;103402.25;6199363;28;20233;-51
2021/03/01 15:26:16;;;;;;;10.48;9.05;;;;;;;17.31;34.96;103395.13;6213931;28;20236;-55
2021/03/01 15:29:36;;;;;;;10.20;8.48;;;;;;;17.09;35.19;103390.66;6198158;28;20241;-54
2021/03/01 15:32:57;;;;;;;12.17;8.83;;;;;;;17.05;35.94;103399.41;6213888;28;20233;-55
2021/03/01 15:36:17;;;;;;;12.80;9.70;;;;;;;16.11;36.90;103396.09;6208799;28;22440;-58
2021/03/01 15:39:37;;;;;;;10.07;8.57;;;;;;;15.65;38.49;103400.88;6196299;28;20452;-55
2021/03/01 15:42:59;;;;;;;11.23;8.63;;;;;;;15.29;39.74;103396.94;6214983;28;20626;-57
2021/03/01 15:46:19;;;;;;;10.33;8.83;;;;;;;15.23;40.32;103391.63;6212877;28;20229;-55
2021/03/01 15:49:40;;;;;;;10.63;7.87;;;;;;;14.75;41.51;103391.88;6211488;28;20229;-54
2021/03/01 15:53:00;;;;;;;12.43;8.90;;;;;;;14.44;42.54;103397.47;6213801;28;20241;-55
2021/03/01 15:56:21;;;;;;;14.20;12.27;;;;;;;14.46;42.56;103398.38;6214843;28;20233;-55
2021/03/01 15:59:42;;;;;;;11.60;9.20;;;;;;;14.73;42.11;103384.84;6210588;28;20957;-53
2021/03/01 16:03:03;;;;;;;9.33;8.07;;;;;;;14.26;43.10;103388.44;6212455;28;21047;-57
2021/03/01 16:06:23;;;;;;;12.03;9.53;;;;;;;14.11;43.44;103388.19;6208917;28;20229;-55
2021/03/01 16:09:44;;;;;;;8.27;7.20;;;;;;;14.25;43.19;103391.03;6189715;28;20602;-55
2021/03/01 16:13:04;;;;;;;15.97;10.07;;;;;;;14.25;43.40;103386.72;6211843;28;20229;-53